Currently 61°F in Pinon Hills, California, USA
61°F
67°F / 60°F
3 mph SW
0.00"
Monday, May 29, 2017 2:40 AM PDT

Pinon Hills, California Weather Summary
Last 36 Hours

Temperature Winds Hourly Humidity Dewpoint
Time Report Norm Report Norm Max Gusts Precip. Rpt. Norm Rpt. Norm Pressure
1Mon 02:40 AM  61.4°F  61°F  3 mph SW  3 mph  3 mph  0.00"  35%  36%  32°F  32°F  30.04"
Mon 02:00 AM  66.0°F  61°F  1 mph S  3 mph  9 mph  0.00"  28%  35%  31°F  32°F  30.05"
3Mon 01:01 AM  60.3°F  62°F  2 mph SW  3 mph  3 mph  ----  36%  35%  32°F  33°F  30.06"
Mon 01:00 AM  60.7°F  62°F  calm  3 mph  4 mph  0.00"  36%  35%  33°F  33°F  30.07"
2Mon 12:00 AM  67.4°F  63°F  2 mph W  3 mph  9 mph  0.00"  27%  35%  31°F  34°F  30.07"
Sun 11:00 PM  66.9°F  64°F  5 mph SW  3 mph  7 mph  0.00"  27%  37%  31°F  36°F  30.07"
Sun 10:00 PM  66.0°F  66°F  calm  2 mph  8 mph  0.00"  32%  35%  34°F  37°F  30.08"
Sun 09:00 PM  70.9°F  68°F  4 mph SW  4 mph  8 mph  0.00"  24%  31%  31°F  35°F  30.07"
Sun 08:00 PM  74.8°F  71°F  3 mph SW  5 mph  6 mph  0.00"  23%  29%  33°F  36°F  30.05"
Sun 07:00 PM  80.5°F  75°F  3 mph W  6 mph  10 mph  0.00"  16%  24%  29°F  34°F  30.05"
Sun 06:00 PM  81.5°F  78°F  5 mph SE  6 mph  11 mph  0.00"  16%  22%  29°F  34°F  30.04"
Sun 05:00 PM  83.4°F  80°F  6 mph SE  5 mph  13 mph  0.00"  15%  20%  29°F  33°F  30.04"
Sun 04:00 PM  84.7°F  81°F  4 mph S  5 mph  11 mph  0.00"  11%  19%  21°F  33°F  30.06"
Sun 03:00 PM  85.2°F  81°F  3 mph SE  4 mph  16 mph  0.00"  13%  17%  26°F  31°F  30.07"
Sun 02:00 PM  84.8°F  81°F  2 mph SE  3 mph  15 mph  0.00"  10%  17%  20°F  31°F  30.09"
Sun 01:00 PM  83.2°F  80°F  10 mph E  3 mph  14 mph  0.00"  13%  19%  25°F  32°F  30.11"
Sun 12:00 PM  82.0°F  78°F  6 mph E  3 mph  13 mph  0.00"  12%  21%  23°F  34°F  30.12"
Sun 11:00 AM  80.3°F  76°F  2 mph E  3 mph  11 mph  0.00"  15%  23%  27°F  34°F  30.12"
Sun 10:00 AM  77.9°F  73°F  3 mph SE  3 mph  12 mph  0.00"  20%  27%  32°F  35°F  30.12"
Sun 09:00 AM  72.0°F  71°F  3 mph NE  2 mph  6 mph  0.00"  34%  30%  41°F  36°F  30.12"
Sun 08:00 AM  69.9°F  68°F  calm  3 mph  none  0.00"  34%  33%  39°F  37°F  30.11"
Sun 07:00 AM  62.1°F  64°F  calm  2 mph  3 mph  0.00"  43%  36%  39°F  36°F  30.12"
Sun 06:00 AM  56.1°F  58°F  calm  2 mph  4 mph  0.00"  46%  40%  35°F  33°F  30.11"
Sun 05:00 AM  57.0°F  59°F  1 mph SW  3 mph  6 mph  0.00"  43%  39%  34°F  33°F  30.10"
Sun 04:00 AM  57.2°F  60°F  3 mph SW  3 mph  6 mph  0.00"  42%  38%  33°F  33°F  30.10"
Sun 03:00 AM  58.7°F  60°F  2 mph SW  3 mph  5 mph  0.00"  41%  38%  34°F  34°F  30.10"
Sun 02:00 AM  57.9°F  60°F  2 mph W  3 mph  6 mph  0.00"  43%  38%  35°F  34°F  30.10"
Sun 01:00 AM  59.4°F  61°F  4 mph SW  3 mph  6 mph  0.00"  41%  37%  34°F  34°F  30.11"
Sun 12:00 AM  61.1°F  62°F  3 mph SW  3 mph  7 mph  0.00"  39%  37%  35°F  35°F  30.11"
Sat 11:00 PM  62.2°F  63°F  3 mph SW  3 mph  7 mph  0.00"  39%  40%  36°F  37°F  30.11"
Sat 10:00 PM  63.6°F  65°F  2 mph SW  3 mph  6 mph  0.00"  39%  38%  37°F  37°F  30.10"
Sat 09:00 PM  64.9°F  67°F  calm  4 mph  5 mph  0.00"  37%  34%  37°F  37°F  30.08"
Sat 08:00 PM  69.0°F  70°F  calm  5 mph  7 mph  0.00"  27%  32%  32°F  37°F  30.07"
Sat 07:00 PM  75.6°F  74°F  calm  6 mph  8 mph  0.00"  15%  27%  22°F  36°F  30.06"
Sat 06:00 PM  76.5°F  77°F  4 mph SE  6 mph  11 mph  0.00"  19%  24%  29°F  36°F  30.06"
Sat 05:00 PM  78.3°F  78°F  6 mph E  5 mph  14 mph  0.00"  18%  22%  30°F  35°F  30.06"
Sat 04:00 PM  80.0°F  79°F  3 mph E  5 mph  9 mph  0.00"  20%  22%  34°F  35°F  30.06"
Sat 03:00 PM  79.1°F  80°F  4 mph NW  4 mph  11 mph  0.00"  15%  20%  26°F  33°F  30.07"

  1. Current weather data. No green row appears if the current weather data is also the high or low for the current day.
  2. High temperature for the current day.
  3. Low temperature for the current day.

The Pinon Hills, California weather pages are a service of WeatherCurrents.
Copyright ©Mon May 29 02:40:30 PDT 2017  WeatherCurrents. All rights reserved. - Submit questions and comments - Privacy Policy

This page automatically refreshes every 10 minutes.